createdAt,value
2022-11-29T00:02:24.481Z,66.46
2022-11-29T00:04:57.428Z,66.82
2022-11-29T00:07:31.626Z,66.49
2022-11-29T00:10:04.988Z,67.09
2022-11-29T00:12:37.769Z,66.73
2022-11-29T00:15:10.756Z,66.44
2022-11-29T00:17:43.998Z,66.93
2022-11-29T00:20:17.007Z,67.06
2022-11-29T00:22:51.279Z,67.28
2022-11-29T00:25:24.286Z,66.96
2022-11-29T00:27:57.081Z,66.78
2022-11-29T00:30:30.058Z,67.14
2022-11-29T00:33:03.769Z,67.39
2022-11-29T00:35:36.631Z,67.56
2022-11-29T00:38:10.825Z,67.51
2022-11-29T00:40:43.780Z,66.87
2022-11-29T00:43:16.564Z,67.58
2022-11-29T00:45:49.480Z,67.64
2022-11-29T00:48:22.327Z,68.16
2022-11-29T00:50:55.201Z,67.51
2022-11-29T00:53:30.033Z,67.21
2022-11-29T00:56:04.623Z,67.40
2022-11-29T00:58:37.808Z,67.91
2022-11-29T01:01:11.798Z,67.96
2022-11-29T01:03:44.700Z,67.96
2022-11-29T01:06:19.304Z,67.34
2022-11-29T01:08:54.054Z,67.57
2022-11-29T01:11:28.797Z,67.46
2022-11-29T01:14:02.995Z,67.22
2022-11-29T01:16:36.035Z,67.38
2022-11-29T01:19:08.916Z,67.57
2022-11-29T01:21:42.341Z,67.23
2022-11-29T01:24:16.555Z,67.28
2022-11-29T01:26:49.424Z,67.42
2022-11-29T01:32:12.695Z,68.09
2022-11-29T01:34:45.642Z,68.18
2022-11-29T01:37:18.683Z,67.71
2022-11-29T01:39:52.877Z,68.31
2022-11-29T01:42:25.764Z,68.15
2022-11-29T01:45:08.954Z,67.60
2022-11-29T01:47:47.366Z,68.45
2022-11-29T01:50:20.904Z,67.96
2022-11-29T01:52:53.895Z,68.50
2022-11-29T01:55:28.156Z,68.09
2022-11-29T02:00:52.485Z,67.82
2022-11-29T02:03:25.455Z,67.82
2022-11-29T02:05:58.249Z,67.95
2022-11-29T02:08:37.574Z,67.70
2022-11-29T02:11:43.225Z,67.94
2022-11-29T02:14:34.641Z,67.79
2022-11-29T02:17:15.352Z,67.72
2022-11-29T02:20:12.139Z,68.06
2022-11-29T02:22:51.786Z,67.78
2022-11-29T02:25:41.540Z,68.38
2022-11-29T02:28:45.206Z,68.30
2022-11-29T02:31:54.930Z,67.85
2022-11-29T02:34:54.567Z,68.11
2022-11-29T02:37:46.725Z,67.64
2022-11-29T02:40:42.494Z,67.52
2022-11-29T02:43:33.037Z,67.42
2022-11-29T02:46:18.661Z,67.46
2022-11-29T02:48:59.221Z,67.25
2022-11-29T02:51:42.312Z,67.06
2022-11-29T02:54:20.539Z,66.94
2022-11-29T02:56:57.965Z,67.81
2022-11-29T02:59:46.803Z,68.09
2022-11-29T03:02:27.817Z,67.51
2022-11-29T03:05:10.780Z,67.50
2022-11-29T03:07:56.850Z,67.64
2022-11-29T03:10:40.926Z,68.04
2022-11-29T03:13:24.957Z,67.79
2022-11-29T03:16:05.204Z,67.82
2022-11-29T03:18:55.974Z,67.97
2022-11-29T03:21:40.783Z,67.88
2022-11-29T03:24:22.330Z,68.47
2022-11-29T03:27:02.842Z,68.49
2022-11-29T03:29:41.268Z,68.02
2022-11-29T03:32:21.474Z,67.87
2022-11-29T03:35:00.843Z,68.41
2022-11-29T03:37:43.138Z,68.72
2022-11-29T03:40:20.930Z,68.77
2022-11-29T03:42:59.389Z,68.26
2022-11-29T03:45:39.804Z,67.95
2022-11-29T03:48:18.634Z,68.10
2022-11-29T03:50:57.430Z,68.59
2022-11-29T03:53:35.120Z,68.66
2022-11-29T03:59:25.504Z,68.38
2022-11-29T04:02:34.883Z,68.63
2022-11-29T04:05:30.472Z,68.94
2022-11-29T04:08:41.078Z,68.89
2022-11-29T04:11:55.811Z,68.89
2022-11-29T04:14:38.315Z,68.91
2022-11-29T04:17:42.588Z,69.20
2022-11-29T04:20:56.926Z,69.37
2022-11-29T04:24:08.262Z,68.82
2022-11-29T04:27:10.739Z,68.87
2022-11-29T04:30:07.108Z,68.81
2022-11-29T04:33:05.770Z,69.22
2022-11-29T04:36:07.905Z,69.12
2022-11-29T04:38:49.385Z,68.74
2022-11-29T04:41:59.209Z,68.70
2022-11-29T04:44:45.685Z,68.92
2022-11-29T04:47:42.141Z,68.97
2022-11-29T04:50:25.260Z,68.82
2022-11-29T04:53:49.199Z,68.58
2022-11-29T04:56:32.229Z,68.66
2022-11-29T04:59:14.491Z,68.73
2022-11-29T05:01:59.815Z,69.08
2022-11-29T05:04:47.727Z,68.87
2022-11-29T05:07:30.449Z,69.30
2022-11-29T05:10:25.522Z,69.64
2022-11-29T05:13:07.225Z,69.04
2022-11-29T05:15:51.531Z,69.73
2022-11-29T05:18:36.016Z,69.39
2022-11-29T05:21:19.996Z,69.20
2022-11-29T05:24:04.406Z,68.98
2022-11-29T05:26:44.880Z,68.92
2022-11-29T05:29:22.995Z,69.27
2022-11-29T05:32:04.734Z,69.17
2022-11-29T05:34:53.327Z,69.67
2022-11-29T05:37:39.140Z,69.15
2022-11-29T05:40:47.381Z,69.45
2022-11-29T05:43:33.460Z,69.72
2022-11-29T05:46:13.195Z,69.69
2022-11-29T05:48:54.237Z,69.16
2022-11-29T05:51:41.154Z,69.38
2022-11-29T05:54:26.869Z,69.06
2022-11-29T05:57:09.707Z,69.14
2022-11-29T05:59:44.751Z,69.55
2022-11-29T06:02:29.183Z,69.38
2022-11-29T06:05:11.590Z,68.88
2022-11-29T06:07:55.060Z,68.88
2022-11-29T06:10:32.973Z,68.94
2022-11-29T06:13:17.434Z,68.99
2022-11-29T06:16:17.295Z,68.51
2022-11-29T06:19:12.924Z,68.71
2022-11-29T06:21:52.409Z,68.93
2022-11-29T06:24:47.146Z,68.44
2022-11-29T06:27:39.956Z,68.57
2022-11-29T06:30:15.441Z,68.86
2022-11-29T06:32:55.962Z,68.92
2022-11-29T06:35:40.931Z,68.21
2022-11-29T06:38:19.383Z,68.46
2022-11-29T06:40:56.052Z,68.00
2022-11-29T06:43:35.130Z,68.39
2022-11-29T06:46:20.026Z,67.85
2022-11-29T06:49:01.894Z,68.60
2022-11-29T06:51:45.371Z,68.02
2022-11-29T06:54:33.630Z,68.06
2022-11-29T06:57:14.758Z,68.56
2022-11-29T07:00:00.094Z,68.84
2022-11-29T07:02:55.386Z,68.68
2022-11-29T07:05:30.031Z,68.56
2022-11-29T07:08:05.231Z,68.65
2022-11-29T07:10:40.787Z,69.42
2022-11-29T07:13:14.810Z,69.29
2022-11-29T07:16:00.729Z,69.44
2022-11-29T07:18:42.920Z,68.96
2022-11-29T07:21:27.929Z,69.35
2022-11-29T07:24:10.092Z,69.27
2022-11-29T07:26:55.141Z,69.28
2022-11-29T07:29:41.248Z,69.17
2022-11-29T07:32:22.147Z,69.26
2022-11-29T07:35:03.065Z,69.15
2022-11-29T07:37:42.253Z,69.58
2022-11-29T07:40:19.757Z,69.54
2022-11-29T07:43:05.962Z,69.31
2022-11-29T07:45:40.429Z,69.23
2022-11-29T07:48:14.934Z,69.57
2022-11-29T07:50:48.447Z,69.21
2022-11-29T07:53:23.205Z,69.41
2022-11-29T07:55:56.154Z,69.57
2022-11-29T07:58:29.318Z,69.82
2022-11-29T08:01:02.235Z,69.48
2022-11-29T08:03:36.492Z,69.09
2022-11-29T08:06:09.558Z,68.99
2022-11-29T08:08:44.136Z,69.42
2022-11-29T08:11:17.353Z,69.38
2022-11-29T08:13:50.177Z,68.90
2022-11-29T08:16:23.015Z,69.50
2022-11-29T08:18:57.520Z,69.29
2022-11-29T08:21:30.447Z,69.28
2022-11-29T08:24:03.244Z,69.12
2022-11-29T08:26:36.196Z,68.91
2022-11-29T08:29:09.217Z,69.13
2022-11-29T08:31:42.428Z,68.62
2022-11-29T08:34:16.610Z,69.20
2022-11-29T08:36:49.944Z,68.93
2022-11-29T08:39:22.885Z,68.87
2022-11-29T08:41:55.736Z,68.39
2022-11-29T08:44:28.584Z,68.51
2022-11-29T08:47:19.074Z,68.16
2022-11-29T08:50:07.086Z,68.85
2022-11-29T08:53:00.148Z,67.97
2022-11-29T08:55:36.234Z,67.94
2022-11-29T08:58:11.211Z,68.29
2022-11-29T09:00:46.937Z,67.91
2022-11-29T09:03:37.894Z,67.94
2022-11-29T09:06:14.582Z,68.17
2022-11-29T09:08:47.481Z,67.73
2022-11-29T09:11:22.620Z,68.02
2022-11-29T09:13:57.660Z,67.76
2022-11-29T09:16:33.855Z,67.49
2022-11-29T09:19:07.948Z,68.00
2022-11-29T09:21:42.282Z,67.10
2022-11-29T09:24:16.077Z,67.73
2022-11-29T09:26:49.203Z,67.20
2022-11-29T09:29:22.119Z,67.15
2022-11-29T09:31:54.957Z,66.98
2022-11-29T09:34:27.884Z,67.09
2022-11-29T09:37:02.059Z,67.33
2022-11-29T09:39:34.959Z,66.88
2022-11-29T09:42:24.342Z,66.54
2022-11-29T09:45:05.795Z,66.81
2022-11-29T09:47:58.634Z,66.64
2022-11-29T09:50:35.071Z,66.42
2022-11-29T09:53:27.212Z,65.84
2022-11-29T09:56:11.696Z,65.75
2022-11-29T09:58:51.522Z,66.21
2022-11-29T10:01:29.013Z,65.90
2022-11-29T10:04:06.081Z,65.89
2022-11-29T10:06:44.190Z,65.80
2022-11-29T10:09:23.912Z,65.28
2022-11-29T10:12:07.956Z,64.73
2022-11-29T10:14:47.245Z,64.67
2022-11-29T10:17:35.773Z,64.76
2022-11-29T10:20:15.618Z,64.83
2022-11-29T10:22:54.509Z,65.06
2022-11-29T10:25:34.878Z,64.64
2022-11-29T10:28:13.835Z,64.53
2022-11-29T10:30:47.614Z,64.70
2022-11-29T10:33:22.551Z,64.29
2022-11-29T10:35:58.320Z,64.36
2022-11-29T10:38:31.934Z,64.29
2022-11-29T10:41:11.997Z,63.69
2022-11-29T10:43:44.991Z,64.29
2022-11-29T10:46:28.264Z,63.74
2022-11-29T10:49:03.863Z,63.44
2022-11-29T10:51:36.743Z,63.79
2022-11-29T10:54:26.306Z,62.84
2022-11-29T10:57:02.768Z,63.33
2022-11-29T10:59:35.954Z,62.99
2022-11-29T11:02:19.777Z,62.72
2022-11-29T11:04:52.728Z,62.80
2022-11-29T11:07:30.192Z,62.54
2022-11-29T11:10:06.082Z,62.74
2022-11-29T11:12:40.369Z,62.80
2022-11-29T11:15:29.298Z,62.25
2022-11-29T11:18:05.012Z,62.17
2022-11-29T11:20:44.372Z,61.43
2022-11-29T11:23:26.084Z,61.46
2022-11-29T11:26:01.956Z,61.84
2022-11-29T11:28:41.373Z,60.94
2022-11-29T11:31:15.242Z,60.92
2022-11-29T11:33:48.777Z,61.16
2022-11-29T11:36:24.731Z,61.02
2022-11-29T11:38:59.855Z,60.51
2022-11-29T11:41:52.296Z,60.60
2022-11-29T11:44:53.626Z,61.04
2022-11-29T11:47:28.628Z,61.42
2022-11-29T11:50:09.155Z,61.48
2022-11-29T11:52:50.151Z,62.01
2022-11-29T11:55:31.027Z,62.50
2022-11-29T11:58:10.592Z,62.35
2022-11-29T12:01:05.665Z,62.52
2022-11-29T12:03:51.065Z,63.22
2022-11-29T12:06:42.069Z,63.51
2022-11-29T12:09:27.303Z,63.32
2022-11-29T12:12:11.838Z,63.49
2022-11-29T12:14:55.605Z,63.50
2022-11-29T12:17:37.022Z,63.99
2022-11-29T12:20:21.357Z,63.73
2022-11-29T12:23:14.743Z,63.83
2022-11-29T12:25:53.148Z,64.53
2022-11-29T12:28:29.889Z,64.29
2022-11-29T12:31:17.891Z,64.03
2022-11-29T12:34:04.123Z,63.53
2022-11-29T12:36:47.703Z,63.88
2022-11-29T12:39:37.871Z,63.41
2022-11-29T12:42:17.779Z,63.55
2022-11-29T12:45:01.275Z,63.63
2022-11-29T12:47:51.711Z,63.10
2022-11-29T12:50:37.139Z,63.08
2022-11-29T12:53:27.281Z,63.62
2022-11-29T12:56:11.054Z,63.02
2022-11-29T12:58:59.959Z,63.31
2022-11-29T13:01:44.849Z,63.33
2022-11-29T13:04:24.917Z,62.67
2022-11-29T13:07:07.767Z,63.51
2022-11-29T13:10:14.973Z,63.12
2022-11-29T13:12:55.006Z,62.73
2022-11-29T13:15:40.565Z,62.80
2022-11-29T13:18:19.799Z,62.93
2022-11-29T13:20:58.293Z,63.00
2022-11-29T13:24:07.380Z,63.29
2022-11-29T13:26:35.167Z,63.06
2022-11-29T13:29:13.975Z,63.07
2022-11-29T13:31:48.241Z,62.95
2022-11-29T13:34:25.841Z,62.93
2022-11-29T13:37:08.600Z,62.90
2022-11-29T13:39:58.105Z,62.52
2022-11-29T13:42:42.471Z,62.97
2022-11-29T13:45:22.788Z,63.15
2022-11-29T13:47:57.619Z,63.38
2022-11-29T13:50:39.031Z,63.25
2022-11-29T13:53:16.321Z,63.58
2022-11-29T13:56:00.324Z,64.10
2022-11-29T13:58:41.119Z,64.10
2022-11-29T14:01:15.473Z,64.37
2022-11-29T14:04:05.699Z,63.97
2022-11-29T14:06:40.095Z,64.76
2022-11-29T14:09:23.671Z,64.45
2022-11-29T14:12:03.871Z,64.79
2022-11-29T14:14:49.096Z,64.76
2022-11-29T14:17:47.496Z,65.15
2022-11-29T14:20:45.172Z,65.64
2022-11-29T14:23:32.166Z,65.31
2022-11-29T14:26:35.117Z,64.51
2022-11-29T14:29:54.948Z,65.61
2022-11-29T14:32:35.995Z,65.32
2022-11-29T14:35:17.437Z,65.71
2022-11-29T14:37:57.515Z,65.93
2022-11-29T14:40:35.901Z,66.34
2022-11-29T14:43:21.852Z,66.68
2022-11-29T14:46:11.293Z,66.11
2022-11-29T14:48:57.752Z,66.58
2022-11-29T14:51:32.960Z,66.54
2022-11-29T14:54:16.039Z,67.00
2022-11-29T14:56:48.937Z,67.24
2022-11-29T14:59:55.654Z,66.90
2022-11-29T15:02:35.263Z,67.15
2022-11-29T15:05:16.091Z,67.19
2022-11-29T15:07:53.878Z,67.53
2022-11-29T15:10:30.922Z,67.09
2022-11-29T15:13:05.739Z,67.54
2022-11-29T15:15:52.805Z,67.59
2022-11-29T15:18:55.172Z,67.85
2022-11-29T15:21:36.861Z,68.16
2022-11-29T15:24:12.961Z,68.35
2022-11-29T15:26:57.482Z,68.53
2022-11-29T15:29:32.241Z,67.95
2022-11-29T15:32:08.037Z,68.95
2022-11-29T15:34:45.246Z,68.48
2022-11-29T15:37:24.276Z,68.46
2022-11-29T15:40:04.656Z,68.56
2022-11-29T15:42:43.695Z,68.76
2022-11-29T15:45:28.976Z,68.19
2022-11-29T15:48:30.101Z,68.95
2022-11-29T15:51:12.436Z,69.23
2022-11-29T15:53:50.385Z,69.15
2022-11-29T15:56:31.464Z,68.66
2022-11-29T15:59:10.250Z,69.21
2022-11-29T16:01:47.345Z,69.40
2022-11-29T16:04:22.976Z,69.53
2022-11-29T16:06:58.427Z,69.62
2022-11-29T16:09:35.838Z,69.73
2022-11-29T16:12:14.774Z,70.07
2022-11-29T16:14:53.792Z,70.14
2022-11-29T16:17:28.117Z,70.54
2022-11-29T16:20:24.932Z,70.09
2022-11-29T16:23:12.636Z,71.06
2022-11-29T16:25:53.689Z,70.52
2022-11-29T16:28:30.871Z,71.19
2022-11-29T16:31:05.007Z,71.15
2022-11-29T16:33:39.448Z,71.27
2022-11-29T16:36:16.571Z,71.42
2022-11-29T16:38:53.913Z,71.30
2022-11-29T16:41:33.448Z,71.24
2022-11-29T16:44:30.182Z,71.78
2022-11-29T16:47:13.685Z,71.51
2022-11-29T16:49:46.967Z,71.84
2022-11-29T16:52:27.763Z,71.96
2022-11-29T16:55:02.309Z,72.10
2022-11-29T16:57:35.640Z,71.99
2022-11-29T17:00:22.696Z,72.30
2022-11-29T17:02:55.627Z,72.06
2022-11-29T17:05:28.548Z,72.59
2022-11-29T17:08:01.817Z,72.26
2022-11-29T17:10:36.082Z,72.49
2022-11-29T17:13:10.610Z,72.33
2022-11-29T17:15:43.474Z,72.45
2022-11-29T17:18:16.590Z,72.54
2022-11-29T17:20:49.738Z,72.54
2022-11-29T17:23:22.794Z,72.43
2022-11-29T17:26:00.976Z,72.96
2022-11-29T17:28:34.041Z,72.92
2022-11-29T17:31:09.951Z,72.47
2022-11-29T17:33:43.400Z,72.51
2022-11-29T17:36:18.324Z,72.28
2022-11-29T17:38:51.344Z,73.07
2022-11-29T17:41:28.357Z,72.80
2022-11-29T17:44:01.869Z,72.61
2022-11-29T17:46:36.429Z,72.60
2022-11-29T17:49:10.651Z,73.35
2022-11-29T17:51:51.761Z,73.46
2022-11-29T17:54:25.984Z,73.34
2022-11-29T17:57:00.863Z,73.68
2022-11-29T17:59:33.865Z,73.00
2022-11-29T18:02:07.859Z,73.79
2022-11-29T18:04:43.053Z,73.61
2022-11-29T18:07:17.316Z,73.52
2022-11-29T18:09:51.078Z,73.42
2022-11-29T18:12:25.461Z,73.63
2022-11-29T18:14:58.805Z,73.72
2022-11-29T18:17:32.038Z,73.77
2022-11-29T18:20:05.553Z,74.36
2022-11-29T18:22:38.461Z,74.01
2022-11-29T18:25:37.681Z,74.17
2022-11-29T18:28:06.870Z,73.47
2022-11-29T18:30:39.955Z,73.83
2022-11-29T18:33:13.388Z,73.88
2022-11-29T18:35:46.523Z,74.17
2022-11-29T18:38:19.790Z,74.05
2022-11-29T18:40:52.999Z,73.89
2022-11-29T18:43:27.497Z,73.50
2022-11-29T18:46:00.650Z,73.77
2022-11-29T18:48:33.894Z,74.02
2022-11-29T18:51:08.727Z,74.04
2022-11-29T18:53:44.249Z,74.24
2022-11-29T18:56:19.293Z,74.23
2022-11-29T18:58:58.358Z,74.13
2022-11-29T19:01:35.627Z,73.67
2022-11-29T19:04:09.851Z,73.72
2022-11-29T19:06:43.866Z,74.08
2022-11-29T19:09:19.331Z,74.71
2022-11-29T19:11:52.308Z,74.89
2022-11-29T19:14:26.668Z,74.79
2022-11-29T19:16:59.732Z,74.72
2022-11-29T19:19:33.640Z,74.28
2022-11-29T19:22:06.859Z,74.28
2022-11-29T19:24:40.047Z,74.63
2022-11-29T19:27:13.135Z,74.73
2022-11-29T19:29:47.805Z,74.82
2022-11-29T19:32:21.222Z,74.39
2022-11-29T19:34:54.114Z,74.67
2022-11-29T19:37:27.367Z,74.93
2022-11-29T19:40:00.310Z,74.74
2022-11-29T19:42:33.472Z,74.03
2022-11-29T19:45:17.186Z,74.18
2022-11-29T19:47:51.041Z,74.77
2022-11-29T19:50:24.131Z,74.34
2022-11-29T19:52:57.113Z,74.96
2022-11-29T19:55:30.315Z,74.62
2022-11-29T19:58:03.324Z,74.61
2022-11-29T20:00:37.767Z,74.64
2022-11-29T20:03:10.810Z,74.39
2022-11-29T20:05:43.837Z,74.83
2022-11-29T20:08:21.266Z,74.94
2022-11-29T20:10:54.668Z,74.75
2022-11-29T20:13:27.829Z,74.38
2022-11-29T20:16:04.246Z,74.55
2022-11-29T20:18:39.327Z,74.42
2022-11-29T20:21:14.664Z,74.40
2022-11-29T20:23:47.789Z,74.94
2022-11-29T20:26:23.199Z,74.85
2022-11-29T20:28:57.543Z,74.87
2022-11-29T20:31:34.223Z,74.99
2022-11-29T20:34:07.643Z,74.89
2022-11-29T20:36:48.360Z,75.16
2022-11-29T20:39:33.071Z,75.15
2022-11-29T20:42:38.009Z,74.79
2022-11-29T20:45:13.863Z,74.97
2022-11-29T20:47:54.423Z,74.89
2022-11-29T20:50:29.950Z,74.81
2022-11-29T20:53:17.192Z,75.13
2022-11-29T20:55:50.652Z,75.03
2022-11-29T20:58:23.914Z,75.10
2022-11-29T21:00:57.582Z,74.98
2022-11-29T21:03:32.287Z,74.87
2022-11-29T21:06:07.176Z,74.35
2022-11-29T21:08:40.349Z,74.26
2022-11-29T21:11:14.182Z,74.38
2022-11-29T21:13:48.204Z,74.58
2022-11-29T21:16:28.622Z,74.03
2022-11-29T21:19:04.172Z,74.44
2022-11-29T21:21:44.783Z,74.37
2022-11-29T21:24:29.715Z,74.58
2022-11-29T21:27:04.472Z,74.69
2022-11-29T21:29:38.012Z,74.80
2022-11-29T21:32:22.192Z,74.93
2022-11-29T21:34:56.709Z,74.98
2022-11-29T21:37:32.171Z,75.02
2022-11-29T21:40:06.209Z,75.48
2022-11-29T21:42:39.476Z,75.26
2022-11-29T21:45:15.712Z,75.12
2022-11-29T21:47:49.231Z,75.31
2022-11-29T21:50:23.750Z,75.63
2022-11-29T21:52:56.734Z,75.54
2022-11-29T21:55:32.143Z,75.42
2022-11-29T21:58:05.653Z,75.36
2022-11-29T22:00:38.772Z,75.66
2022-11-29T22:03:11.790Z,75.81
2022-11-29T22:05:46.231Z,75.98
2022-11-29T22:08:19.557Z,75.73
2022-11-29T22:11:01.641Z,76.09
2022-11-29T22:13:34.721Z,75.49
2022-11-29T22:16:09.946Z,75.83
2022-11-29T22:18:43.232Z,75.54
2022-11-29T22:21:17.677Z,76.10
2022-11-29T22:23:50.841Z,75.47
2022-11-29T22:26:23.999Z,75.99
2022-11-29T22:28:57.110Z,75.65
2022-11-29T22:31:30.300Z,75.94
2022-11-29T22:34:03.314Z,76.03
2022-11-29T22:36:38.692Z,76.23
2022-11-29T22:39:12.130Z,75.89
2022-11-29T22:41:49.227Z,76.10
2022-11-29T22:44:25.648Z,76.17
2022-11-29T22:46:58.915Z,76.39
2022-11-29T22:49:33.296Z,76.25
2022-11-29T22:52:07.824Z,76.21
2022-11-29T22:54:40.756Z,76.20
2022-11-29T22:57:13.704Z,76.31
2022-11-29T22:59:46.982Z,76.83
2022-11-29T23:02:20.280Z,76.46
2022-11-29T23:04:53.340Z,76.48
2022-11-29T23:07:28.391Z,76.26
2022-11-29T23:10:01.429Z,76.47
2022-11-29T23:12:34.360Z,75.84
2022-11-29T23:15:08.074Z,76.24
2022-11-29T23:17:41.260Z,76.26
2022-11-29T23:20:15.013Z,76.21
2022-11-29T23:22:49.779Z,76.41
2022-11-29T23:25:22.758Z,76.23
2022-11-29T23:27:55.691Z,76.57
2022-11-29T23:30:28.791Z,76.12
2022-11-29T23:33:01.951Z,76.45
2022-11-29T23:35:35.186Z,76.44
2022-11-29T23:38:09.913Z,76.20
2022-11-29T23:40:44.807Z,76.79
2022-11-29T23:43:17.748Z,76.23
2022-11-29T23:45:51.108Z,76.32
2022-11-29T23:48:24.508Z,76.26
2022-11-29T23:50:57.466Z,76.36
2022-11-29T23:53:31.903Z,76.46
2022-11-29T23:56:06.989Z,76.37
2022-11-29T23:58:40.522Z,76.32
